DAL2606 KLAX-KSEA
Flight info
| Callsign | DAL2606 |
|---|---|
| Flight time | 2h 12m |
| Altitude | 36000 |
| Route | LADYJ4 CSTRO SHIMR LKV HAWKZ8 |
| Aircraft | A21N/M-SDE2E3FGHIRWXY/LB1 |
Departure
| Time | 2026-04-24 22:38 |
|---|---|
| Airport | Los Angeles International Airport (KLAX) |
Arrival
| Time | 2026-04-25 00:51 |
|---|---|
| Airport | Seattle–Tacoma International Airport (KSEA) |
| Time | Latitude | Longitude | Altitude | Speed | Heading |
|---|---|---|---|---|---|
| 2026-04-24 22:01 | 33.94043 | -118.40260 | 129 ft | 0 kts | 84° |
| 2026-04-24 22:29 | 33.94043 | -118.40263 | 129 ft | 2 kts | 84° |
| 2026-04-24 22:29 | 33.94042 | -118.40283 | 124 ft | 2 kts | 89° |
| 2026-04-24 22:30 | 33.94046 | -118.40302 | 127 ft | 2 kts | 123° |
| 2026-04-24 22:30 | 33.94057 | -118.40315 | 125 ft | 2 kts | 164° |
| 2026-04-24 22:30 | 33.94073 | -118.40318 | 124 ft | 2 kts | 176° |
| 2026-04-24 22:30 | 33.94079 | -118.40318 | 127 ft | 0 kts | 174° |
| 2026-04-24 22:31 | 33.94078 | -118.40318 | 127 ft | 0 kts | 174° |
| 2026-04-24 22:33 | 33.94065 | -118.40315 | 124 ft | 9 kts | 168° |
| 2026-04-24 22:33 | 33.93961 | -118.40298 | 126 ft | 16 kts | 174° |
| 2026-04-24 22:33 | 33.93908 | -118.40292 | 126 ft | 14 kts | 175° |
| 2026-04-24 22:34 | 33.93856 | -118.40227 | 125 ft | 16 kts | 87° |
| 2026-04-24 22:34 | 33.93875 | -118.40024 | 129 ft | 27 kts | 83° |
| 2026-04-24 22:34 | 33.93901 | -118.39788 | 125 ft | 30 kts | 81° |
| 2026-04-24 22:34 | 33.93926 | -118.39535 | 124 ft | 31 kts | 83° |
| 2026-04-24 22:35 | 33.93951 | -118.39281 | 126 ft | 31 kts | 83° |
| 2026-04-24 22:35 | 33.93979 | -118.39024 | 129 ft | 31 kts | 82° |
| 2026-04-24 22:35 | 33.94005 | -118.38769 | 128 ft | 31 kts | 83° |
| 2026-04-24 22:35 | 33.94031 | -118.38507 | 129 ft | 31 kts | 83° |
| 2026-04-24 22:36 | 33.94057 | -118.38259 | 126 ft | 29 kts | 83° |
| 2026-04-24 22:36 | 33.94080 | -118.38063 | 128 ft | 0 kts | 85° |
| 2026-04-24 22:36 | 33.94080 | -118.38040 | 126 ft | 16 kts | 90° |
| 2026-04-24 22:36 | 33.94050 | -118.37996 | 127 ft | 12 kts | 166° |
| 2026-04-24 22:37 | 33.93978 | -118.38076 | 129 ft | 22 kts | 263° |
| 2026-04-24 22:37 | 33.93936 | -118.38485 | 125 ft | 79 kts | 263° |
| 2026-04-24 22:37 | 33.93843 | -118.39396 | 129 ft | 140 kts | 263° |
| 2026-04-24 22:37 | 33.93706 | -118.40730 | 225 ft | 174 kts | 261° |
| 2026-04-24 22:38 | 33.93555 | -118.42234 | 565 ft | 185 kts | 261° |
| 2026-04-24 22:38 | 33.93412 | -118.43802 | 1091 ft | 195 kts | 262° |
| 2026-04-24 22:38 | 33.93349 | -118.45465 | 1714 ft | 203 kts | 264° |
| 2026-04-24 22:38 | 33.93224 | -118.47231 | 2079 ft | 223 kts | 260° |
| 2026-04-24 22:39 | 33.93008 | -118.49169 | 2487 ft | 239 kts | 261° |
| 2026-04-24 22:39 | 33.92798 | -118.51177 | 3151 ft | 243 kts | 262° |
| 2026-04-24 22:39 | 33.92603 | -118.53215 | 3840 ft | 247 kts | 263° |
| 2026-04-24 22:39 | 33.92420 | -118.55262 | 4613 ft | 245 kts | 263° |
| 2026-04-24 22:40 | 33.92245 | -118.57294 | 5377 ft | 246 kts | 263° |
| 2026-04-24 22:40 | 33.92078 | -118.59408 | 5860 ft | 262 kts | 267° |
| 2026-04-24 22:40 | 33.92279 | -118.61606 | 6560 ft | 268 kts | 288° |
| 2026-04-24 22:40 | 33.93227 | -118.63529 | 7297 ft | 272 kts | 313° |
| 2026-04-24 22:41 | 33.94694 | -118.64844 | 7746 ft | 276 kts | 327° |
| 2026-04-24 22:41 | 33.96386 | -118.65970 | 7891 ft | 279 kts | 329° |
| 2026-04-24 22:41 | 33.98124 | -118.67034 | 7901 ft | 280 kts | 335° |
| 2026-04-24 22:41 | 33.99376 | -118.67524 | 7899 ft | 282 kts | 348° |
| 2026-04-24 22:42 | 34.01984 | -118.67635 | 7901 ft | 285 kts | 0° |
| 2026-04-24 22:42 | 34.03966 | -118.67500 | 7902 ft | 286 kts | 1° |
| 2026-04-24 22:42 | 34.05955 | -118.67350 | 7898 ft | 286 kts | 1° |
| 2026-04-24 22:42 | 34.07938 | -118.67127 | 7898 ft | 287 kts | 6° |
| 2026-04-24 22:43 | 34.09907 | -118.66703 | 8079 ft | 289 kts | 9° |
| 2026-04-24 22:43 | 34.11893 | -118.66229 | 8827 ft | 291 kts | 8° |
| 2026-04-24 22:43 | 34.13895 | -118.65751 | 9663 ft | 297 kts | 8° |
| 2026-04-24 22:43 | 34.15948 | -118.65262 | 10278 ft | 308 kts | 8° |
| 2026-04-24 22:44 | 34.18118 | -118.64748 | 10596 ft | 329 kts | 8° |
| 2026-04-24 22:44 | 34.20404 | -118.64210 | 10905 ft | 349 kts | 8° |
| 2026-04-24 22:44 | 34.22855 | -118.63653 | 11213 ft | 367 kts | 5° |
| 2026-04-24 22:44 | 34.25424 | -118.63570 | 11744 ft | 372 kts | 351° |
| 2026-04-24 22:45 | 34.27997 | -118.64030 | 12411 ft | 376 kts | 346° |
| 2026-04-24 22:45 | 34.30584 | -118.64616 | 13142 ft | 380 kts | 345° |
| 2026-04-24 22:45 | 34.33197 | -118.65226 | 13810 ft | 385 kts | 345° |
| 2026-04-24 22:45 | 34.35842 | -118.65842 | 14408 ft | 389 kts | 345° |
| 2026-04-24 22:46 | 34.38507 | -118.66448 | 15000 ft | 391 kts | 344° |
| 2026-04-24 22:46 | 34.41191 | -118.67061 | 15663 ft | 393 kts | 343° |
| 2026-04-24 22:46 | 34.43893 | -118.67651 | 16277 ft | 397 kts | 344° |
| 2026-04-24 22:46 | 34.46636 | -118.68198 | 16853 ft | 401 kts | 345° |
| 2026-04-24 22:47 | 34.49401 | -118.68737 | 17435 ft | 405 kts | 344° |
| 2026-04-24 22:47 | 34.52195 | -118.69282 | 17987 ft | 408 kts | 344° |
| 2026-04-24 22:47 | 34.54964 | -118.69821 | 18510 ft | 410 kts | 344° |
| 2026-04-24 22:47 | 34.57788 | -118.70370 | 19028 ft | 412 kts | 344° |
| 2026-04-24 22:48 | 34.60631 | -118.70919 | 19582 ft | 413 kts | 343° |
| 2026-04-24 22:48 | 34.63475 | -118.71475 | 20140 ft | 415 kts | 343° |
| 2026-04-24 22:48 | 34.66333 | -118.72036 | 20590 ft | 417 kts | 343° |
| 2026-04-24 22:48 | 34.69201 | -118.72616 | 21073 ft | 416 kts | 340° |
| 2026-04-24 22:49 | 34.71971 | -118.73523 | 21580 ft | 408 kts | 332° |
| 2026-04-24 22:49 | 34.74536 | -118.74904 | 22022 ft | 401 kts | 324° |
| 2026-04-24 22:49 | 34.76982 | -118.76528 | 22475 ft | 401 kts | 322° |
| 2026-04-24 22:49 | 34.79376 | -118.78180 | 22943 ft | 401 kts | 322° |
| 2026-04-24 22:50 | 34.81797 | -118.79855 | 23427 ft | 400 kts | 322° |
| 2026-04-24 22:50 | 34.84227 | -118.81535 | 23740 ft | 403 kts | 322° |
| 2026-04-24 22:50 | 34.86674 | -118.83225 | 24006 ft | 407 kts | 322° |
| 2026-04-24 22:50 | 34.89149 | -118.84933 | 24278 ft | 411 kts | 322° |
| 2026-04-24 22:51 | 34.91652 | -118.86659 | 24465 ft | 415 kts | 322° |
| 2026-04-24 22:51 | 34.94169 | -118.88392 | 24805 ft | 416 kts | 322° |
| 2026-04-24 22:51 | 34.96690 | -118.90128 | 25152 ft | 417 kts | 322° |
| 2026-04-24 22:51 | 34.99225 | -118.91876 | 25454 ft | 420 kts | 322° |
| 2026-04-24 22:52 | 35.01773 | -118.93636 | 25742 ft | 423 kts | 322° |
| 2026-04-24 22:52 | 35.04307 | -118.95387 | 26033 ft | 425 kts | 322° |
| 2026-04-24 22:52 | 35.06882 | -118.97165 | 26395 ft | 425 kts | 322° |
| 2026-04-24 22:52 | 35.09457 | -118.98945 | 26740 ft | 426 kts | 321° |
| 2026-04-24 22:53 | 35.12035 | -119.00727 | 27123 ft | 425 kts | 321° |
| 2026-04-24 22:53 | 35.14608 | -119.02508 | 27497 ft | 424 kts | 321° |
| 2026-04-24 22:53 | 35.17174 | -119.04286 | 27856 ft | 424 kts | 321° |
| 2026-04-24 22:53 | 35.19737 | -119.06064 | 28247 ft | 423 kts | 321° |
| 2026-04-24 22:54 | 35.22293 | -119.07838 | 28612 ft | 422 kts | 321° |
| 2026-04-24 22:54 | 35.24842 | -119.09608 | 28996 ft | 421 kts | 321° |
| 2026-04-24 22:54 | 35.27388 | -119.11378 | 29393 ft | 420 kts | 321° |
| 2026-04-24 22:54 | 35.29889 | -119.13118 | 29768 ft | 419 kts | 320° |
| 2026-04-24 22:55 | 35.32416 | -119.14877 | 30109 ft | 418 kts | 320° |
| 2026-04-24 22:55 | 35.34942 | -119.16638 | 30384 ft | 417 kts | 320° |
| 2026-04-24 22:55 | 35.37464 | -119.18397 | 30651 ft | 417 kts | 320° |
| 2026-04-24 22:55 | 35.39985 | -119.20156 | 30987 ft | 416 kts | 320° |
| 2026-04-24 22:56 | 35.42499 | -119.21896 | 31278 ft | 416 kts | 321° |
| 2026-04-24 22:56 | 35.45152 | -119.23408 | 31521 ft | 427 kts | 329° |
| 2026-04-24 22:56 | 35.48011 | -119.24523 | 31751 ft | 434 kts | 333° |
| 2026-04-24 22:56 | 35.50935 | -119.25481 | 31968 ft | 437 kts | 334° |
| 2026-04-24 22:57 | 35.53896 | -119.26369 | 32173 ft | 438 kts | 335° |
| 2026-04-24 22:57 | 35.56865 | -119.27223 | 32396 ft | 439 kts | 335° |
| 2026-04-24 22:57 | 35.58835 | -119.27786 | 32615 ft | 438 kts | 336° |
| 2026-04-24 22:57 | 35.62738 | -119.28905 | 33028 ft | 434 kts | 335° |
| 2026-04-24 22:58 | 35.65676 | -119.29763 | 33228 ft | 434 kts | 335° |
| 2026-04-24 22:58 | 35.68611 | -119.30632 | 33400 ft | 434 kts | 335° |
| 2026-04-24 22:58 | 35.71542 | -119.31509 | 33583 ft | 434 kts | 335° |
| 2026-04-24 22:58 | 35.74473 | -119.32389 | 33766 ft | 433 kts | 335° |
| 2026-04-24 22:59 | 35.77401 | -119.33270 | 33940 ft | 433 kts | 335° |
| 2026-04-24 22:59 | 35.80324 | -119.34151 | 34115 ft | 433 kts | 335° |
| 2026-04-24 22:59 | 35.85184 | -119.35614 | 34356 ft | 432 kts | 335° |
| 2026-04-24 23:00 | 35.88107 | -119.36495 | 34486 ft | 432 kts | 335° |
| 2026-04-24 23:00 | 35.90999 | -119.37368 | 34605 ft | 432 kts | 336° |
| 2026-04-24 23:00 | 35.94897 | -119.38544 | 34774 ft | 432 kts | 336° |
| 2026-04-24 23:01 | 35.99793 | -119.40024 | 34969 ft | 433 kts | 337° |
| 2026-04-24 23:01 | 36.05618 | -119.41789 | 35096 ft | 435 kts | 337° |
| 2026-04-24 23:02 | 36.11504 | -119.43572 | 35269 ft | 436 kts | 337° |
| 2026-04-24 23:02 | 36.17404 | -119.45362 | 35426 ft | 437 kts | 337° |
| 2026-04-24 23:03 | 36.23324 | -119.47163 | 35535 ft | 440 kts | 338° |
| 2026-04-24 23:03 | 36.29270 | -119.48971 | 35707 ft | 440 kts | 338° |
| 2026-04-24 23:04 | 36.35219 | -119.50783 | 35848 ft | 441 kts | 338° |
| 2026-04-24 23:04 | 36.41158 | -119.52597 | 35865 ft | 443 kts | 339° |
| 2026-04-24 23:05 | 36.47150 | -119.54428 | 35858 ft | 443 kts | 338° |
| 2026-04-24 23:05 | 36.53138 | -119.56261 | 35863 ft | 443 kts | 338° |
| 2026-04-24 23:06 | 36.59121 | -119.58096 | 35876 ft | 443 kts | 339° |
| 2026-04-24 23:06 | 36.65104 | -119.59935 | 35862 ft | 443 kts | 339° |
| 2026-04-24 23:07 | 36.71089 | -119.61776 | 35862 ft | 443 kts | 339° |
| 2026-04-24 23:07 | 36.77068 | -119.63618 | 35861 ft | 443 kts | 339° |
| 2026-04-24 23:08 | 36.83008 | -119.65452 | 35861 ft | 443 kts | 339° |
| 2026-04-24 23:08 | 36.88984 | -119.67300 | 35861 ft | 442 kts | 339° |
| 2026-04-24 23:09 | 36.94960 | -119.69150 | 35860 ft | 442 kts | 339° |
| 2026-04-24 23:09 | 37.00934 | -119.71004 | 35865 ft | 442 kts | 339° |
| 2026-04-24 23:10 | 37.06864 | -119.72846 | 35863 ft | 442 kts | 339° |
| 2026-04-24 23:10 | 37.12829 | -119.74703 | 35869 ft | 442 kts | 339° |
| 2026-04-24 23:11 | 37.18793 | -119.76562 | 35878 ft | 442 kts | 339° |
| 2026-04-24 23:11 | 37.24753 | -119.78422 | 35875 ft | 441 kts | 339° |
| 2026-04-24 23:12 | 37.30710 | -119.80285 | 35883 ft | 441 kts | 339° |
| 2026-04-24 23:12 | 37.36663 | -119.82150 | 35903 ft | 441 kts | 340° |
| 2026-04-24 23:13 | 37.42575 | -119.84004 | 35885 ft | 440 kts | 340° |
| 2026-04-24 23:13 | 37.48522 | -119.85873 | 35887 ft | 440 kts | 340° |
| 2026-04-24 23:14 | 37.54465 | -119.87745 | 35890 ft | 440 kts | 340° |
| 2026-04-24 23:14 | 37.60403 | -119.89617 | 35889 ft | 440 kts | 340° |
| 2026-04-24 23:15 | 37.66341 | -119.91494 | 35889 ft | 440 kts | 340° |
| 2026-04-24 23:15 | 37.72271 | -119.93375 | 35887 ft | 439 kts | 340° |
| 2026-04-24 23:16 | 37.78167 | -119.95244 | 35880 ft | 439 kts | 340° |
| 2026-04-24 23:16 | 37.84099 | -119.97122 | 35888 ft | 439 kts | 340° |
| 2026-04-24 23:17 | 37.90028 | -119.99004 | 35891 ft | 439 kts | 340° |
| 2026-04-24 23:17 | 37.95956 | -120.00893 | 35890 ft | 439 kts | 341° |
| 2026-04-24 23:18 | 38.01841 | -120.02770 | 35887 ft | 439 kts | 341° |
| 2026-04-24 23:18 | 38.07770 | -120.04658 | 35897 ft | 439 kts | 341° |
| 2026-04-24 23:19 | 38.13699 | -120.06556 | 35906 ft | 439 kts | 341° |
| 2026-04-24 23:19 | 38.19621 | -120.08458 | 35895 ft | 439 kts | 341° |
| 2026-04-24 23:20 | 38.25677 | -120.09778 | 35905 ft | 445 kts | 350° |
| 2026-04-24 23:20 | 38.31811 | -120.10402 | 35922 ft | 446 kts | 351° |
| 2026-04-24 23:21 | 38.37998 | -120.10975 | 35913 ft | 446 kts | 351° |
| 2026-04-24 23:21 | 38.44180 | -120.11539 | 35913 ft | 445 kts | 351° |
| 2026-04-24 23:22 | 38.50355 | -120.12104 | 35918 ft | 445 kts | 351° |
| 2026-04-24 23:22 | 38.56533 | -120.12668 | 35914 ft | 445 kts | 351° |
| 2026-04-24 23:23 | 38.62703 | -120.13233 | 35918 ft | 444 kts | 351° |
| 2026-04-24 23:23 | 38.68830 | -120.13795 | 35918 ft | 444 kts | 351° |
| 2026-04-24 23:24 | 38.74997 | -120.14361 | 35911 ft | 444 kts | 351° |
| 2026-04-24 23:24 | 38.81165 | -120.14927 | 35905 ft | 444 kts | 351° |
| 2026-04-24 23:25 | 38.87330 | -120.15494 | 35914 ft | 444 kts | 351° |
| 2026-04-24 23:25 | 38.93492 | -120.16063 | 35904 ft | 444 kts | 351° |
| 2026-04-24 23:26 | 38.99612 | -120.16629 | 35897 ft | 444 kts | 351° |
| 2026-04-24 23:26 | 39.05773 | -120.17199 | 35911 ft | 444 kts | 351° |
| 2026-04-24 23:27 | 39.11936 | -120.17772 | 35921 ft | 444 kts | 352° |
| 2026-04-24 23:27 | 39.18093 | -120.18344 | 35923 ft | 444 kts | 352° |
| 2026-04-24 23:28 | 39.24213 | -120.18914 | 35918 ft | 444 kts | 352° |
| 2026-04-24 23:28 | 39.30368 | -120.19488 | 35927 ft | 444 kts | 352° |
| 2026-04-24 23:29 | 39.36529 | -120.20063 | 35922 ft | 444 kts | 352° |
| 2026-04-24 23:29 | 39.42687 | -120.20640 | 35861 ft | 444 kts | 352° |
| 2026-04-24 23:30 | 39.48839 | -120.21217 | 35865 ft | 443 kts | 352° |
| 2026-04-24 23:30 | 39.54952 | -120.21790 | 35852 ft | 443 kts | 352° |
| 2026-04-24 23:31 | 39.61101 | -120.22369 | 35844 ft | 443 kts | 352° |
| 2026-04-24 23:31 | 39.67251 | -120.22949 | 35851 ft | 443 kts | 352° |
| 2026-04-24 23:32 | 39.73401 | -120.23529 | 35838 ft | 443 kts | 352° |
| 2026-04-24 23:32 | 39.79552 | -120.24111 | 35830 ft | 443 kts | 352° |
| 2026-04-24 23:33 | 39.85705 | -120.24694 | 35818 ft | 443 kts | 352° |
| 2026-04-24 23:33 | 39.91855 | -120.25277 | 35810 ft | 443 kts | 352° |
| 2026-04-24 23:34 | 39.97964 | -120.25859 | 35800 ft | 443 kts | 352° |
| 2026-04-24 23:34 | 40.04112 | -120.26444 | 35799 ft | 443 kts | 352° |
| 2026-04-24 23:35 | 40.10254 | -120.27030 | 35796 ft | 443 kts | 352° |
| 2026-04-24 23:35 | 40.16399 | -120.27618 | 35798 ft | 442 kts | 352° |
| 2026-04-24 23:36 | 40.22537 | -120.28205 | 35803 ft | 442 kts | 352° |
| 2026-04-24 23:36 | 40.28682 | -120.28795 | 35815 ft | 442 kts | 352° |
| 2026-04-24 23:37 | 40.34778 | -120.29381 | 35819 ft | 442 kts | 351° |
| 2026-04-24 23:37 | 40.43979 | -120.30268 | 35829 ft | 442 kts | 351° |
| 2026-04-24 23:38 | 40.50108 | -120.30860 | 35814 ft | 441 kts | 351° |
| 2026-04-24 23:38 | 40.56219 | -120.31450 | 35812 ft | 440 kts | 351° |
| 2026-04-24 23:39 | 40.62289 | -120.32039 | 35809 ft | 440 kts | 351° |
| 2026-04-24 23:39 | 40.68399 | -120.32632 | 35807 ft | 440 kts | 351° |
| 2026-04-24 23:40 | 40.74512 | -120.33227 | 35810 ft | 440 kts | 351° |
| 2026-04-24 23:40 | 40.80618 | -120.33822 | 35826 ft | 440 kts | 351° |
| 2026-04-24 23:41 | 40.86720 | -120.34417 | 35815 ft | 439 kts | 351° |
| 2026-04-24 23:41 | 40.92772 | -120.35010 | 35825 ft | 439 kts | 351° |
| 2026-04-24 23:42 | 40.98867 | -120.35607 | 35832 ft | 439 kts | 351° |
| 2026-04-24 23:42 | 41.04962 | -120.36206 | 35838 ft | 439 kts | 351° |
| 2026-04-24 23:43 | 41.11056 | -120.36804 | 35846 ft | 439 kts | 351° |
| 2026-04-24 23:43 | 41.17143 | -120.37405 | 35853 ft | 439 kts | 352° |
| 2026-04-24 23:44 | 41.23195 | -120.38002 | 35854 ft | 439 kts | 352° |
| 2026-04-24 23:44 | 41.29284 | -120.38604 | 35861 ft | 439 kts | 352° |
| 2026-04-24 23:45 | 41.35376 | -120.39208 | 35867 ft | 439 kts | 352° |
| 2026-04-24 23:45 | 41.41467 | -120.39813 | 35868 ft | 439 kts | 352° |
| 2026-04-24 23:46 | 41.47559 | -120.40417 | 35870 ft | 438 kts | 351° |
| 2026-04-24 23:46 | 41.53590 | -120.41019 | 35868 ft | 437 kts | 351° |
| 2026-04-24 23:47 | 41.59657 | -120.41625 | 35870 ft | 436 kts | 351° |
| 2026-04-24 23:47 | 41.65709 | -120.42230 | 35872 ft | 436 kts | 351° |
| 2026-04-24 23:48 | 41.71760 | -120.42837 | 35881 ft | 436 kts | 351° |
| 2026-04-24 23:48 | 41.77808 | -120.43444 | 35885 ft | 435 kts | 351° |
| 2026-04-24 23:49 | 41.83805 | -120.44047 | 35889 ft | 434 kts | 351° |
| 2026-04-24 23:49 | 41.89819 | -120.44653 | 35901 ft | 434 kts | 351° |
| 2026-04-24 23:50 | 41.95831 | -120.45261 | 35904 ft | 432 kts | 351° |
| 2026-04-24 23:50 | 42.01820 | -120.45866 | 35908 ft | 431 kts | 351° |
| 2026-04-24 23:51 | 42.07794 | -120.46472 | 35908 ft | 431 kts | 351° |
| 2026-04-24 23:51 | 42.13731 | -120.47076 | 35908 ft | 430 kts | 351° |
| 2026-04-24 23:52 | 42.19304 | -120.47642 | 35923 ft | 429 kts | 351° |
| 2026-04-24 23:52 | 42.25233 | -120.48348 | 35918 ft | 425 kts | 346° |
| 2026-04-24 23:53 | 42.30838 | -120.50553 | 35915 ft | 418 kts | 335° |
| 2026-04-24 23:53 | 42.36219 | -120.53541 | 35922 ft | 419 kts | 334° |
| 2026-04-24 23:54 | 42.41556 | -120.56580 | 35923 ft | 419 kts | 334° |
| 2026-04-24 23:54 | 42.46918 | -120.59650 | 35922 ft | 419 kts | 334° |
| 2026-04-24 23:55 | 42.52281 | -120.62726 | 35925 ft | 418 kts | 334° |
| 2026-04-24 23:55 | 42.57635 | -120.65801 | 35924 ft | 418 kts | 334° |
| 2026-04-24 23:56 | 42.63001 | -120.68889 | 35931 ft | 418 kts | 334° |
| 2026-04-24 23:56 | 42.68319 | -120.71956 | 35931 ft | 417 kts | 334° |
| 2026-04-24 23:57 | 42.73652 | -120.75036 | 35930 ft | 416 kts | 334° |
| 2026-04-24 23:57 | 42.78979 | -120.78120 | 35931 ft | 416 kts | 334° |
| 2026-04-24 23:58 | 42.84296 | -120.81205 | 35933 ft | 415 kts | 334° |
| 2026-04-24 23:58 | 42.89596 | -120.84285 | 35937 ft | 413 kts | 334° |
| 2026-04-24 23:59 | 42.94880 | -120.87362 | 35935 ft | 413 kts | 334° |
| 2026-04-24 23:59 | 43.00133 | -120.90424 | 35939 ft | 413 kts | 334° |
| 2026-04-25 00:00 | 43.05410 | -120.93508 | 35938 ft | 412 kts | 334° |
| 2026-04-25 00:00 | 43.10682 | -120.96594 | 35931 ft | 412 kts | 334° |
| 2026-04-25 00:01 | 43.15948 | -120.99683 | 35934 ft | 412 kts | 334° |
| 2026-04-25 00:01 | 43.21174 | -121.02754 | 35939 ft | 411 kts | 334° |
| 2026-04-25 00:02 | 43.26424 | -121.05844 | 35943 ft | 410 kts | 334° |
| 2026-04-25 00:02 | 43.31671 | -121.08939 | 35933 ft | 410 kts | 334° |
| 2026-04-25 00:03 | 43.36914 | -121.12039 | 35918 ft | 410 kts | 334° |
| 2026-04-25 00:03 | 43.42166 | -121.15148 | 35960 ft | 411 kts | 334° |
| 2026-04-25 00:04 | 43.47371 | -121.18235 | 35927 ft | 410 kts | 334° |
| 2026-04-25 00:04 | 43.52604 | -121.21345 | 35924 ft | 409 kts | 334° |
| 2026-04-25 00:05 | 43.57832 | -121.24459 | 35921 ft | 410 kts | 334° |
| 2026-04-25 00:05 | 43.63069 | -121.27583 | 35923 ft | 410 kts | 334° |
| 2026-04-25 00:06 | 43.68295 | -121.30706 | 35930 ft | 410 kts | 334° |
| 2026-04-25 00:06 | 43.73502 | -121.33824 | 35933 ft | 409 kts | 334° |
| 2026-04-25 00:07 | 43.78720 | -121.36955 | 35932 ft | 408 kts | 334° |
| 2026-04-25 00:07 | 43.83929 | -121.40087 | 35934 ft | 408 kts | 334° |
| 2026-04-25 00:08 | 43.89139 | -121.43224 | 35933 ft | 408 kts | 334° |
| 2026-04-25 00:08 | 43.94342 | -121.46364 | 35938 ft | 407 kts | 334° |
| 2026-04-25 00:09 | 43.99534 | -121.49503 | 35942 ft | 407 kts | 334° |
| 2026-04-25 00:09 | 44.04688 | -121.52626 | 35941 ft | 407 kts | 334° |
| 2026-04-25 00:10 | 44.09879 | -121.55777 | 35950 ft | 406 kts | 334° |
| 2026-04-25 00:10 | 44.15052 | -121.58922 | 35949 ft | 405 kts | 334° |
| 2026-04-25 00:11 | 44.19337 | -121.61531 | 35956 ft | 404 kts | 334° |
| 2026-04-25 00:11 | 44.25355 | -121.65205 | 35965 ft | 404 kts | 334° |
| 2026-04-25 00:12 | 44.30471 | -121.68333 | 35966 ft | 404 kts | 334° |
| 2026-04-25 00:12 | 44.35620 | -121.71489 | 35967 ft | 404 kts | 334° |
| 2026-04-25 00:13 | 44.40762 | -121.74646 | 35966 ft | 404 kts | 334° |
| 2026-04-25 00:13 | 44.45905 | -121.77810 | 35967 ft | 404 kts | 334° |
| 2026-04-25 00:14 | 44.51043 | -121.80977 | 35966 ft | 403 kts | 334° |
| 2026-04-25 00:14 | 44.56137 | -121.84123 | 35977 ft | 403 kts | 334° |
| 2026-04-25 00:15 | 44.61261 | -121.87294 | 35981 ft | 403 kts | 334° |
| 2026-04-25 00:15 | 44.66384 | -121.90468 | 35976 ft | 401 kts | 334° |
| 2026-04-25 00:16 | 44.71488 | -121.93633 | 35985 ft | 401 kts | 334° |
| 2026-04-25 00:16 | 44.76564 | -121.96789 | 35974 ft | 401 kts | 334° |
| 2026-04-25 00:17 | 44.81659 | -121.99970 | 35982 ft | 401 kts | 334° |
| 2026-04-25 00:17 | 44.86745 | -122.03149 | 35984 ft | 399 kts | 334° |
| 2026-04-25 00:18 | 44.91810 | -122.06317 | 35977 ft | 398 kts | 334° |
| 2026-04-25 00:18 | 44.96870 | -122.09491 | 35980 ft | 398 kts | 334° |
| 2026-04-25 00:19 | 45.01927 | -122.12671 | 35974 ft | 398 kts | 334° |
| 2026-04-25 00:19 | 45.06960 | -122.15842 | 35937 ft | 399 kts | 334° |
| 2026-04-25 00:20 | 45.12027 | -122.19038 | 35931 ft | 399 kts | 334° |
| 2026-04-25 00:20 | 45.17098 | -122.22244 | 35934 ft | 399 kts | 334° |
| 2026-04-25 00:21 | 45.22164 | -122.25452 | 35934 ft | 398 kts | 334° |
| 2026-04-25 00:21 | 45.27224 | -122.28660 | 35930 ft | 399 kts | 334° |
| 2026-04-25 00:22 | 45.32253 | -122.31856 | 35930 ft | 398 kts | 334° |
| 2026-04-25 00:22 | 45.37311 | -122.35078 | 35925 ft | 398 kts | 334° |
| 2026-04-25 00:23 | 45.42372 | -122.38308 | 35920 ft | 398 kts | 334° |
| 2026-04-25 00:23 | 45.47420 | -122.41536 | 35914 ft | 398 kts | 334° |
| 2026-04-25 00:24 | 45.52479 | -122.44778 | 35918 ft | 398 kts | 334° |
| 2026-04-25 00:24 | 45.57531 | -122.48022 | 35918 ft | 398 kts | 334° |
| 2026-04-25 00:25 | 45.60072 | -122.49657 | 35675 ft | 402 kts | 334° |
| 2026-04-25 00:25 | 45.62596 | -122.51283 | 34948 ft | 405 kts | 334° |
| 2026-04-25 00:25 | 45.65173 | -122.52942 | 34207 ft | 407 kts | 334° |
| 2026-04-25 00:25 | 45.67754 | -122.54606 | 33446 ft | 407 kts | 334° |
| 2026-04-25 00:26 | 45.70338 | -122.56274 | 32649 ft | 407 kts | 334° |
| 2026-04-25 00:26 | 45.72928 | -122.57935 | 31879 ft | 408 kts | 335° |
| 2026-04-25 00:26 | 45.75607 | -122.59240 | 31259 ft | 408 kts | 343° |
| 2026-04-25 00:26 | 45.78380 | -122.60063 | 30666 ft | 406 kts | 346° |
| 2026-04-25 00:27 | 45.81154 | -122.60756 | 30041 ft | 404 kts | 346° |
| 2026-04-25 00:27 | 45.83916 | -122.61428 | 29358 ft | 401 kts | 347° |
| 2026-04-25 00:27 | 45.86655 | -122.62095 | 28751 ft | 397 kts | 347° |
| 2026-04-25 00:27 | 45.89367 | -122.62761 | 28102 ft | 394 kts | 347° |
| 2026-04-25 00:28 | 45.92016 | -122.63414 | 27574 ft | 389 kts | 347° |
| 2026-04-25 00:28 | 45.94660 | -122.64067 | 27168 ft | 384 kts | 347° |
| 2026-04-25 00:28 | 45.97289 | -122.64719 | 26749 ft | 381 kts | 347° |
| 2026-04-25 00:28 | 45.99878 | -122.65364 | 26297 ft | 375 kts | 348° |
| 2026-04-25 00:29 | 46.02433 | -122.66001 | 25834 ft | 370 kts | 348° |
| 2026-04-25 00:29 | 46.04953 | -122.66627 | 25394 ft | 365 kts | 348° |
| 2026-04-25 00:29 | 46.07439 | -122.67244 | 24983 ft | 359 kts | 348° |
| 2026-04-25 00:29 | 46.09889 | -122.67822 | 24538 ft | 355 kts | 349° |
| 2026-04-25 00:30 | 46.12324 | -122.68321 | 24102 ft | 351 kts | 350° |
| 2026-04-25 00:30 | 46.14724 | -122.68794 | 23679 ft | 347 kts | 350° |
| 2026-04-25 00:30 | 46.17106 | -122.69263 | 23204 ft | 343 kts | 351° |
| 2026-04-25 00:30 | 46.19446 | -122.69725 | 22777 ft | 337 kts | 351° |
| 2026-04-25 00:31 | 46.21715 | -122.70173 | 22368 ft | 331 kts | 351° |
| 2026-04-25 00:31 | 46.23978 | -122.70621 | 21960 ft | 326 kts | 351° |
| 2026-04-25 00:31 | 46.26209 | -122.71063 | 21551 ft | 320 kts | 351° |
| 2026-04-25 00:31 | 46.28399 | -122.71498 | 21158 ft | 315 kts | 351° |
| 2026-04-25 00:32 | 46.30551 | -122.71926 | 20764 ft | 310 kts | 351° |
| 2026-04-25 00:32 | 46.32688 | -122.72214 | 20354 ft | 306 kts | 355° |
| 2026-04-25 00:32 | 46.34802 | -122.72329 | 19969 ft | 301 kts | 357° |
| 2026-04-25 00:32 | 46.36181 | -122.72381 | 19719 ft | 298 kts | 357° |
| 2026-04-25 00:33 | 46.38934 | -122.72475 | 19214 ft | 293 kts | 357° |
| 2026-04-25 00:33 | 46.40932 | -122.72544 | 18825 ft | 289 kts | 357° |
| 2026-04-25 00:33 | 46.42926 | -122.72613 | 18454 ft | 285 kts | 357° |
| 2026-04-25 00:33 | 46.44898 | -122.72683 | 18063 ft | 281 kts | 358° |
| 2026-04-25 00:34 | 46.46833 | -122.72752 | 17700 ft | 275 kts | 358° |
| 2026-04-25 00:34 | 46.48728 | -122.72820 | 17380 ft | 270 kts | 358° |
| 2026-04-25 00:34 | 46.50587 | -122.72887 | 17011 ft | 265 kts | 358° |
| 2026-04-25 00:34 | 46.52409 | -122.72953 | 16663 ft | 260 kts | 358° |
| 2026-04-25 00:35 | 46.54203 | -122.73018 | 16324 ft | 255 kts | 358° |
| 2026-04-25 00:35 | 46.56066 | -122.73086 | 16014 ft | 287 kts | 358° |
| 2026-04-25 00:35 | 46.58185 | -122.73164 | 15709 ft | 317 kts | 358° |
| 2026-04-25 00:35 | 46.60369 | -122.73243 | 15668 ft | 309 kts | 358° |
| 2026-04-25 00:36 | 46.62456 | -122.73318 | 15384 ft | 300 kts | 359° |
| 2026-04-25 00:36 | 46.64559 | -122.73394 | 14894 ft | 298 kts | 359° |
| 2026-04-25 00:36 | 46.66595 | -122.73467 | 14406 ft | 296 kts | 359° |
| 2026-04-25 00:36 | 46.68643 | -122.73540 | 13976 ft | 291 kts | 359° |
| 2026-04-25 00:37 | 46.70663 | -122.73614 | 13729 ft | 290 kts | 359° |
| 2026-04-25 00:37 | 46.72686 | -122.73689 | 13572 ft | 291 kts | 359° |
| 2026-04-25 00:37 | 46.74708 | -122.73764 | 13450 ft | 291 kts | 359° |
| 2026-04-25 00:37 | 46.76728 | -122.73753 | 13131 ft | 291 kts | 5° |
| 2026-04-25 00:38 | 46.78696 | -122.73096 | 12752 ft | 291 kts | 21° |
| 2026-04-25 00:38 | 46.80444 | -122.71602 | 12406 ft | 293 kts | 33° |
| 2026-04-25 00:38 | 46.82051 | -122.69766 | 12042 ft | 293 kts | 36° |
| 2026-04-25 00:38 | 46.83626 | -122.67876 | 11686 ft | 294 kts | 37° |
| 2026-04-25 00:39 | 46.85133 | -122.65916 | 11327 ft | 294 kts | 40° |
| 2026-04-25 00:39 | 46.86617 | -122.63877 | 11234 ft | 293 kts | 41° |
| 2026-04-25 00:39 | 46.88096 | -122.61829 | 11104 ft | 293 kts | 41° |
| 2026-04-25 00:39 | 46.89562 | -122.59800 | 10840 ft | 284 kts | 41° |
| 2026-04-25 00:40 | 46.90952 | -122.57828 | 10663 ft | 273 kts | 43° |
| 2026-04-25 00:40 | 46.92260 | -122.55884 | 10356 ft | 266 kts | 44° |
| 2026-04-25 00:40 | 46.93539 | -122.53961 | 10074 ft | 260 kts | 44° |
| 2026-04-25 00:40 | 46.94797 | -122.52064 | 9779 ft | 259 kts | 44° |
| 2026-04-25 00:41 | 46.96051 | -122.50174 | 9396 ft | 257 kts | 44° |
| 2026-04-25 00:41 | 46.97277 | -122.48324 | 9087 ft | 256 kts | 44° |
| 2026-04-25 00:41 | 46.98609 | -122.46625 | 8853 ft | 254 kts | 34° |
| 2026-04-25 00:41 | 47.00101 | -122.45244 | 8445 ft | 253 kts | 30° |
| 2026-04-25 00:42 | 47.01625 | -122.43960 | 8121 ft | 253 kts | 29° |
| 2026-04-25 00:42 | 47.03163 | -122.42681 | 7792 ft | 255 kts | 30° |
| 2026-04-25 00:42 | 47.04700 | -122.41393 | 7491 ft | 254 kts | 31° |
| 2026-04-25 00:42 | 47.06230 | -122.40106 | 7175 ft | 252 kts | 31° |
| 2026-04-25 00:43 | 47.07748 | -122.38826 | 6857 ft | 251 kts | 31° |
| 2026-04-25 00:43 | 47.09229 | -122.37577 | 6680 ft | 240 kts | 31° |
| 2026-04-25 00:43 | 47.10658 | -122.36366 | 6381 ft | 234 kts | 31° |
| 2026-04-25 00:43 | 47.12047 | -122.35266 | 6180 ft | 221 kts | 24° |
| 2026-04-25 00:44 | 47.13519 | -122.34632 | 5687 ft | 222 kts | 13° |
| 2026-04-25 00:44 | 47.15022 | -122.34254 | 5239 ft | 221 kts | 10° |
| 2026-04-25 00:44 | 47.16539 | -122.33922 | 4825 ft | 218 kts | 9° |
| 2026-04-25 00:44 | 47.18025 | -122.33599 | 4503 ft | 213 kts | 10° |
| 2026-04-25 00:45 | 47.19457 | -122.33283 | 4246 ft | 204 kts | 10° |
| 2026-04-25 00:45 | 47.20855 | -122.32971 | 3821 ft | 203 kts | 9° |
| 2026-04-25 00:45 | 47.22234 | -122.32662 | 3481 ft | 199 kts | 9° |
| 2026-04-25 00:45 | 47.23576 | -122.32273 | 3147 ft | 194 kts | 11° |
| 2026-04-25 00:46 | 47.24444 | -122.32076 | 3010 ft | 188 kts | 6° |
| 2026-04-25 00:46 | 47.25744 | -122.31989 | 2988 ft | 187 kts | 1° |
| 2026-04-25 00:46 | 47.28349 | -122.31975 | 3002 ft | 187 kts | 1° |
| 2026-04-25 00:47 | 47.30073 | -122.31944 | 3000 ft | 187 kts | 3° |
| 2026-04-25 00:47 | 47.31378 | -122.31917 | 2941 ft | 187 kts | 359° |
| 2026-04-25 00:47 | 47.32649 | -122.31901 | 2709 ft | 178 kts | 359° |
| 2026-04-25 00:47 | 47.33864 | -122.31892 | 2440 ft | 170 kts | 359° |
| 2026-04-25 00:48 | 47.34634 | -122.31886 | 2276 ft | 164 kts | 358° |
| 2026-04-25 00:48 | 47.35726 | -122.31872 | 2029 ft | 151 kts | 359° |
| 2026-04-25 00:48 | 47.36749 | -122.31840 | 1752 ft | 144 kts | 359° |
| 2026-04-25 00:48 | 47.37749 | -122.31851 | 1560 ft | 143 kts | 357° |
| 2026-04-25 00:49 | 47.38743 | -122.31837 | 1333 ft | 143 kts | 359° |
| 2026-04-25 00:49 | 47.40074 | -122.31855 | 1127 ft | 146 kts | 355° |
| 2026-04-25 00:49 | 47.40761 | -122.31849 | 1073 ft | 146 kts | 357° |
| 2026-04-25 00:49 | 47.41751 | -122.31846 | 902 ft | 140 kts | 359° |
| 2026-04-25 00:50 | 47.42712 | -122.31817 | 699 ft | 142 kts | 359° |
| 2026-04-25 00:50 | 47.43688 | -122.31819 | 518 ft | 139 kts | 357° |
| 2026-04-25 00:50 | 47.44646 | -122.31800 | 407 ft | 131 kts | 358° |
| 2026-04-25 00:50 | 47.45401 | -122.31798 | 397 ft | 61 kts | 1° |
| 2026-04-25 00:51 | 47.45768 | -122.31767 | 397 ft | 48 kts | 14° |
| 2026-04-25 00:51 | 47.45962 | -122.31613 | 397 ft | 26 kts | 49° |
| 2026-04-25 00:51 | 47.45992 | -122.31537 | 397 ft | 2 kts | 74° |
| 2026-04-25 00:51 | 47.46013 | -122.31356 | 397 ft | 21 kts | 89° |
| 2026-04-25 00:52 | 47.46013 | -122.31178 | 397 ft | 19 kts | 90° |
| 2026-04-25 00:52 | 47.46012 | -122.30959 | 397 ft | 22 kts | 90° |
| 2026-04-25 00:52 | 47.46012 | -122.30722 | 397 ft | 24 kts | 90° |
| 2026-04-25 00:52 | 47.45935 | -122.30618 | 394 ft | 20 kts | 179° |
| 2026-04-25 00:53 | 47.45750 | -122.30619 | 396 ft | 30 kts | 180° |
| 2026-04-25 00:53 | 47.45542 | -122.30621 | 393 ft | 30 kts | 180° |
| 2026-04-25 00:53 | 47.45332 | -122.30622 | 397 ft | 30 kts | 180° |
| 2026-04-25 00:53 | 47.45118 | -122.30621 | 393 ft | 31 kts | 181° |
| 2026-04-25 00:54 | 47.44905 | -122.30625 | 397 ft | 27 kts | 180° |
| 2026-04-25 00:54 | 47.44803 | -122.30508 | 395 ft | 20 kts | 104° |
| 2026-04-25 00:54 | 47.44728 | -122.30335 | 396 ft | 20 kts | 127° |
| 2026-04-25 00:54 | 47.44666 | -122.30169 | 391 ft | 16 kts | 112° |
| 2026-04-25 00:55 | 47.44624 | -122.30094 | 392 ft | 5 kts | 143° |
| 2026-04-25 00:55 | 47.44612 | -122.30081 | 394 ft | 0 kts | 143° |